createdAt,value
2022-07-29T18:09:47.506Z,26.44
2022-07-29T18:12:14.087Z,26.19
2022-07-29T18:14:40.694Z,26.11
2022-07-29T18:17:07.275Z,25.89
2022-07-29T18:19:33.837Z,25.74
2022-07-29T18:22:04.838Z,25.69
2022-07-29T18:24:32.212Z,25.62
2022-07-29T18:26:59.064Z,25.55
2022-07-29T18:29:28.879Z,25.55
2022-07-29T18:31:55.820Z,25.50
2022-07-29T18:34:22.388Z,25.50
2022-07-29T18:36:48.960Z,25.47
2022-07-29T18:39:21.276Z,25.50
2022-07-29T18:41:50.592Z,25.39
2022-07-29T18:44:18.410Z,25.40
2022-07-29T18:46:47.257Z,25.49
2022-07-29T18:49:14.736Z,25.51
2022-07-29T18:51:41.470Z,25.48
2022-07-29T18:54:09.236Z,25.44
2022-07-29T18:56:36.000Z,25.46
2022-07-29T18:59:03.060Z,25.45
2022-07-29T19:01:31.608Z,25.41
2022-07-29T19:03:58.783Z,25.41
2022-07-29T19:06:25.854Z,25.42
2022-07-29T19:08:52.835Z,25.39
2022-07-29T19:11:19.544Z,25.41
2022-07-29T19:13:46.113Z,25.38
2022-07-29T19:16:14.032Z,25.35
2022-07-29T19:18:41.331Z,25.34
2022-07-29T19:21:07.914Z,25.32
2022-07-29T19:24:05.848Z,25.27
2022-07-29T19:26:21.146Z,25.28
2022-07-29T19:28:48.795Z,25.27
2022-07-29T19:31:15.859Z,25.22
2022-07-29T19:33:42.753Z,25.17
2022-07-29T19:36:09.400Z,25.12
2022-07-29T19:38:38.150Z,25.15
2022-07-29T19:41:06.224Z,25.16
2022-07-29T19:43:50.863Z,25.12
2022-07-29T19:46:20.403Z,25.09
2022-07-29T19:48:47.095Z,25.10
2022-07-29T19:51:13.936Z,25.08
2022-07-29T19:53:40.498Z,25.08
2022-07-29T19:56:08.757Z,25.08
2022-07-29T19:58:35.830Z,25.04
2022-07-29T20:01:02.986Z,25.02
2022-07-29T20:03:39.725Z,25.06
2022-07-29T20:06:07.479Z,25.01
2022-07-29T20:08:34.396Z,24.96
2022-07-29T20:11:00.981Z,24.96
2022-07-29T20:13:27.627Z,24.96
2022-07-29T20:15:54.261Z,24.94
2022-07-29T20:18:20.887Z,24.97
2022-07-29T20:20:49.188Z,24.89
2022-07-29T20:23:16.498Z,24.90
2022-07-29T20:25:43.076Z,24.89
2022-07-29T20:28:09.808Z,24.93
2022-07-29T20:30:38.571Z,24.90
2022-07-29T20:33:05.843Z,24.88
2022-07-29T20:35:32.512Z,24.84
2022-07-29T20:38:00.368Z,24.81
2022-07-29T20:40:27.260Z,24.85
2022-07-29T20:42:54.314Z,24.91
2022-07-29T20:45:21.420Z,24.86
2022-07-29T20:47:48.029Z,24.84
2022-07-29T20:50:15.020Z,24.78
2022-07-29T20:52:43.333Z,24.81
2022-07-29T20:55:10.675Z,24.78
2022-07-29T20:57:38.904Z,24.74
2022-07-29T21:00:07.467Z,24.73
2022-07-29T21:02:34.294Z,24.70
2022-07-29T21:05:01.157Z,24.69
2022-07-29T21:07:27.937Z,24.73
2022-07-29T21:09:54.531Z,24.71
2022-07-29T21:12:21.128Z,24.69
2022-07-29T21:14:48.106Z,24.72
2022-07-29T21:17:16.025Z,24.70
2022-07-29T21:19:42.805Z,24.62
2022-07-29T21:22:09.647Z,24.67
2022-07-29T21:24:36.209Z,24.63
2022-07-29T21:27:21.993Z,24.67
2022-07-29T21:29:49.206Z,24.65
2022-07-29T21:32:29.678Z,24.63
2022-07-29T21:34:56.879Z,24.57
2022-07-29T21:37:23.452Z,24.62
2022-07-29T21:39:50.023Z,24.62
2022-07-29T21:42:16.681Z,24.52
2022-07-29T21:44:43.310Z,24.58
2022-07-29T21:47:10.639Z,24.55
2022-07-29T21:49:37.530Z,24.52
2022-07-29T21:52:04.730Z,24.54
2022-07-29T21:54:31.409Z,24.57
2022-07-29T21:56:58.072Z,24.52
2022-07-29T21:59:24.901Z,24.52
2022-07-29T22:01:51.594Z,24.46
2022-07-29T22:04:18.278Z,24.47
2022-07-29T22:06:44.932Z,24.46
2022-07-29T22:09:11.507Z,24.44
2022-07-29T22:11:38.066Z,24.44
2022-07-29T22:14:05.230Z,24.47
2022-07-29T22:16:31.872Z,24.43
2022-07-29T22:18:58.660Z,24.43
2022-07-29T22:21:25.289Z,24.43
2022-07-29T22:23:51.859Z,24.44
2022-07-29T22:26:19.004Z,24.40
2022-07-29T22:28:45.568Z,24.43
2022-07-29T22:31:12.389Z,24.41
2022-07-29T22:33:39.081Z,24.33
2022-07-29T22:36:05.844Z,24.45
2022-07-29T22:38:32.425Z,24.35
2022-07-29T22:41:01.349Z,24.33
2022-07-29T22:43:28.184Z,24.30
2022-07-29T22:45:54.887Z,24.32
2022-07-29T22:48:21.495Z,24.32
2022-07-29T22:50:48.089Z,24.26
2022-07-29T22:53:14.737Z,24.26
2022-07-29T22:55:41.350Z,24.28
2022-07-29T22:58:07.960Z,24.23
2022-07-29T23:00:34.598Z,24.29
2022-07-29T23:03:01.217Z,24.19
2022-07-29T23:05:27.957Z,24.27
2022-07-29T23:07:54.536Z,24.31
2022-07-29T23:10:22.810Z,24.18
2022-07-29T23:12:49.457Z,24.21
2022-07-29T23:15:16.007Z,24.21
2022-07-29T23:17:44.754Z,24.19
2022-07-29T23:20:11.529Z,24.14
2022-07-29T23:22:41.584Z,24.15
2022-07-29T23:25:08.448Z,24.12
2022-07-29T23:27:35.247Z,24.08
2022-07-29T23:30:02.519Z,24.14
2022-07-29T23:32:29.166Z,24.05
2022-07-29T23:34:55.762Z,24.05
2022-07-29T23:37:22.383Z,24.09
2022-07-29T23:39:48.946Z,24.08
2022-07-29T23:42:15.519Z,24.04
2022-07-29T23:44:42.088Z,24.08
2022-07-29T23:47:08.667Z,24.06
2022-07-29T23:49:35.302Z,24.04
2022-07-29T23:52:01.902Z,24.09
2022-07-29T23:54:28.497Z,24.02
2022-07-29T23:56:57.724Z,24.06
2022-07-29T23:59:24.746Z,24.06
